createdAt,value
2018-11-06T00:00:21.538Z,3.39
2018-11-06T00:02:54.683Z,3.36
2018-11-06T00:05:23.616Z,3.26
2018-11-06T00:07:53.151Z,3.28
2018-11-06T00:10:21.894Z,3.25
2018-11-06T00:12:50.976Z,3.28
2018-11-06T00:15:19.897Z,3.31
2018-11-06T00:17:48.936Z,3.33
2018-11-06T00:20:17.966Z,3.34
2018-11-06T00:22:47.277Z,3.11
2018-11-06T00:25:16.370Z,3.11
2018-11-06T00:27:46.700Z,3.07
2018-11-06T00:30:15.921Z,3.09
2018-11-06T00:32:45.092Z,3.15
2018-11-06T00:35:15.457Z,3.22
2018-11-06T00:37:45.791Z,3.18
2018-11-06T00:40:15.335Z,3.15
2018-11-06T00:42:44.883Z,3.16
2018-11-06T00:45:16.187Z,3.21
2018-11-06T00:47:45.017Z,3.15
2018-11-06T00:50:14.877Z,3.26
2018-11-06T00:52:45.051Z,3.35
2018-11-06T00:55:14.000Z,3.33
2018-11-06T00:57:43.822Z,3.30
2018-11-06T01:00:18.544Z,3.23
2018-11-06T01:02:49.716Z,3.24
2018-11-06T01:05:19.326Z,3.25
2018-11-06T01:07:49.273Z,3.33
2018-11-06T01:10:18.400Z,3.39
2018-11-06T01:12:47.602Z,3.32
2018-11-06T01:15:17.705Z,3.39
2018-11-06T01:17:47.641Z,3.40
2018-11-06T01:20:17.891Z,3.43
2018-11-06T01:22:47.121Z,3.32
2018-11-06T01:25:16.835Z,3.26
2018-11-06T01:27:45.591Z,3.33
2018-11-06T01:30:18.572Z,3.27
2018-11-06T01:32:48.112Z,3.35
2018-11-06T01:35:18.387Z,3.27
2018-11-06T01:37:47.745Z,3.22
2018-11-06T01:40:18.924Z,3.23
2018-11-06T01:42:48.756Z,3.30
2018-11-06T01:45:21.616Z,3.36
2018-11-06T01:47:51.273Z,3.31
2018-11-06T01:50:20.615Z,3.33
2018-11-06T01:52:49.958Z,3.35
2018-11-06T01:55:20.135Z,3.34
2018-11-06T01:57:50.095Z,3.37
2018-11-06T02:00:20.307Z,3.43
2018-11-06T02:02:50.355Z,3.49
2018-11-06T02:05:19.439Z,3.53
2018-11-06T02:07:49.327Z,3.58
2018-11-06T02:10:19.590Z,3.61
2018-11-06T02:12:49.322Z,3.44
2018-11-06T02:15:18.631Z,3.36
2018-11-06T02:17:48.151Z,3.32
2018-11-06T02:20:18.026Z,3.38
2018-11-06T02:22:47.813Z,3.37
2018-11-06T02:25:17.907Z,3.40
2018-11-06T02:27:47.386Z,3.44
2018-11-06T02:30:17.723Z,3.52
2018-11-06T02:32:47.368Z,3.54
2018-11-06T02:35:16.380Z,3.57
2018-11-06T02:37:45.368Z,3.48
2018-11-06T02:40:15.408Z,3.37
2018-11-06T02:42:45.612Z,3.32
2018-11-06T02:45:14.900Z,3.31
2018-11-06T02:47:44.037Z,3.26
2018-11-06T02:50:15.626Z,3.27
2018-11-06T02:52:45.134Z,3.13
2018-11-06T02:55:14.693Z,2.99
2018-11-06T02:57:43.899Z,2.93
2018-11-06T03:00:15.057Z,2.92
2018-11-06T03:02:45.264Z,3.04
2018-11-06T03:05:13.857Z,3.08
2018-11-06T03:07:42.960Z,3.07
2018-11-06T03:10:13.084Z,3.04
2018-11-06T03:12:43.296Z,2.88
2018-11-06T03:15:13.445Z,2.78
2018-11-06T03:17:43.232Z,2.73
2018-11-06T03:20:13.732Z,2.64
2018-11-06T03:22:44.617Z,2.63
2018-11-06T03:25:14.085Z,2.71
2018-11-06T03:27:43.532Z,2.74
2018-11-06T03:30:16.531Z,2.63
2018-11-06T03:32:45.681Z,2.58
2018-11-06T03:35:15.997Z,2.53
2018-11-06T03:37:45.330Z,2.58
2018-11-06T03:40:14.446Z,2.48
2018-11-06T03:42:43.842Z,2.41
2018-11-06T03:45:14.782Z,2.39
2018-11-06T03:47:43.826Z,2.35
2018-11-06T03:50:13.563Z,2.43
2018-11-06T03:52:42.557Z,2.51
2018-11-06T03:55:11.581Z,2.41
2018-11-06T03:57:40.513Z,2.28
2018-11-06T04:00:15.361Z,2.20
2018-11-06T04:02:47.189Z,2.33
2018-11-06T04:05:16.406Z,2.44
2018-11-06T04:07:46.159Z,2.36
2018-11-06T04:10:16.722Z,2.39
2018-11-06T04:12:47.440Z,2.37
2018-11-06T04:15:17.307Z,2.34
2018-11-06T04:17:46.882Z,2.26
2018-11-06T04:20:16.803Z,2.11
2018-11-06T04:22:45.907Z,2.16
2018-11-06T04:25:15.568Z,2.17
2018-11-06T04:27:44.811Z,2.07
2018-11-06T04:30:14.690Z,2.06
2018-11-06T04:32:44.892Z,1.98
2018-11-06T04:35:14.176Z,2.01
2018-11-06T04:37:43.173Z,2.01
2018-11-06T04:40:13.365Z,2.06
2018-11-06T04:42:42.361Z,1.99
2018-11-06T04:45:11.794Z,2.04
2018-11-06T04:47:40.551Z,1.91
2018-11-06T04:50:10.625Z,1.88
2018-11-06T04:52:39.482Z,1.89
2018-11-06T04:55:09.923Z,1.96
2018-11-06T04:57:38.741Z,1.95
2018-11-06T05:00:09.594Z,2.00
2018-11-06T05:02:38.460Z,2.10
2018-11-06T05:05:08.038Z,2.16
2018-11-06T05:07:38.172Z,2.21
2018-11-06T05:10:08.641Z,2.28
2018-11-06T05:12:38.202Z,2.33
2018-11-06T05:15:08.352Z,2.38
2018-11-06T05:17:37.432Z,2.47
2018-11-06T05:20:08.907Z,2.52
2018-11-06T05:22:37.739Z,2.57
2018-11-06T05:25:08.006Z,2.47
2018-11-06T05:27:37.315Z,2.46
2018-11-06T05:30:06.829Z,2.42
2018-11-06T05:32:35.923Z,2.44
2018-11-06T05:35:05.912Z,2.46
2018-11-06T05:37:35.030Z,2.44
2018-11-06T05:40:14.713Z,2.44
2018-11-06T05:42:43.626Z,2.44
2018-11-06T05:45:12.612Z,2.47
2018-11-06T05:47:41.778Z,2.55
2018-11-06T05:50:10.618Z,2.61
2018-11-06T05:52:40.563Z,2.55
2018-11-06T05:55:09.389Z,2.54
2018-11-06T05:57:38.866Z,2.47
2018-11-06T06:00:09.452Z,2.48
2018-11-06T06:02:38.209Z,2.46
2018-11-06T06:05:07.882Z,2.36
2018-11-06T06:07:37.509Z,2.40
2018-11-06T06:10:06.914Z,2.39
2018-11-06T06:12:36.147Z,2.39
2018-11-06T06:15:06.106Z,2.40
2018-11-06T06:17:35.207Z,2.32
2018-11-06T06:20:04.768Z,2.33
2018-11-06T06:22:33.659Z,2.32
2018-11-06T06:25:03.107Z,2.19
2018-11-06T06:27:32.431Z,2.13
2018-11-06T06:30:02.003Z,2.13
2018-11-06T06:32:30.687Z,2.17
2018-11-06T06:34:59.574Z,2.19
2018-11-06T06:37:28.207Z,2.11
2018-11-06T06:39:57.330Z,2.16
2018-11-06T06:42:27.094Z,2.20
2018-11-06T06:44:55.840Z,2.22
2018-11-06T06:47:25.012Z,2.26
2018-11-06T06:49:53.867Z,2.27
2018-11-06T06:52:23.652Z,2.30
2018-11-06T06:54:52.730Z,2.29
2018-11-06T06:57:21.874Z,2.34
2018-11-06T06:59:51.083Z,2.36
2018-11-06T07:02:19.961Z,2.33
2018-11-06T07:04:48.623Z,2.28
2018-11-06T07:07:17.466Z,2.38
2018-11-06T07:09:46.208Z,2.44
2018-11-06T07:12:15.549Z,2.55
2018-11-06T07:14:44.498Z,2.62
2018-11-06T07:17:19.888Z,2.69
2018-11-06T07:19:49.392Z,2.79
2018-11-06T07:22:18.293Z,2.77
2018-11-06T07:24:47.293Z,2.73
2018-11-06T07:27:16.313Z,2.81
2018-11-06T07:29:45.691Z,2.93
2018-11-06T07:32:14.562Z,3.08
2018-11-06T07:34:43.565Z,3.19
2018-11-06T07:37:12.394Z,3.30
2018-11-06T07:39:41.445Z,3.37
2018-11-06T07:42:10.083Z,3.50
2018-11-06T07:44:39.684Z,3.66
2018-11-06T07:47:08.352Z,3.75
2018-11-06T07:49:39.390Z,3.79
2018-11-06T07:52:09.263Z,3.99
2018-11-06T07:54:39.078Z,4.15
2018-11-06T07:57:09.215Z,4.45
2018-11-06T07:59:38.484Z,4.72
2018-11-06T08:02:07.839Z,4.81
2018-11-06T08:04:37.147Z,5.06
2018-11-06T08:07:06.237Z,5.45
2018-11-06T08:09:36.166Z,5.57
2018-11-06T08:12:05.933Z,6.00
2018-11-06T08:14:35.705Z,6.21
2018-11-06T08:17:05.129Z,6.43
2018-11-06T08:19:34.297Z,6.30
2018-11-06T08:22:03.372Z,6.31
2018-11-06T08:24:35.488Z,6.27
2018-11-06T08:27:05.813Z,6.20
2018-11-06T08:29:35.164Z,6.10
2018-11-06T08:32:04.940Z,5.88
2018-11-06T08:34:34.402Z,5.98
2018-11-06T08:37:04.002Z,6.12
2018-11-06T08:39:32.823Z,6.24
2018-11-06T08:42:02.100Z,6.30
2018-11-06T08:44:31.453Z,6.40
2018-11-06T08:47:00.613Z,6.53
2018-11-06T08:49:29.745Z,6.71
2018-11-06T08:51:59.029Z,6.55
2018-11-06T08:54:28.263Z,6.67
2018-11-06T08:56:56.888Z,6.81
2018-11-06T08:59:25.524Z,6.77
2018-11-06T09:01:55.782Z,6.87
2018-11-06T09:04:24.680Z,7.12
2018-11-06T09:06:53.282Z,7.17
2018-11-06T09:09:22.643Z,7.34
2018-11-06T09:11:51.637Z,7.81
2018-11-06T09:14:20.487Z,8.23
2018-11-06T09:16:49.231Z,8.85
2018-11-06T09:19:19.804Z,9.30
2018-11-06T09:21:48.512Z,9.42
2018-11-06T09:24:17.615Z,9.82
2018-11-06T09:26:46.219Z,9.94
2018-11-06T09:29:15.712Z,9.86
2018-11-06T09:31:44.429Z,9.94
2018-11-06T09:34:13.814Z,9.71
2018-11-06T09:36:42.864Z,9.49
2018-11-06T09:39:12.548Z,9.57
2018-11-06T09:41:41.879Z,9.74
2018-11-06T09:44:11.213Z,9.94
2018-11-06T09:46:40.363Z,9.96
2018-11-06T09:49:08.947Z,10.02
2018-11-06T09:51:38.410Z,10.09
2018-11-06T09:54:07.160Z,9.64
2018-11-06T09:56:36.848Z,9.65
2018-11-06T09:59:05.944Z,9.78
2018-11-06T10:01:34.673Z,9.99
2018-11-06T10:04:04.229Z,10.11
2018-11-06T10:06:33.704Z,10.20
2018-11-06T10:09:02.401Z,10.18
2018-11-06T10:11:31.189Z,10.30
2018-11-06T10:14:00.028Z,10.41
2018-11-06T10:16:29.068Z,10.65
2018-11-06T10:18:57.829Z,10.94
2018-11-06T10:21:26.926Z,11.15
2018-11-06T10:23:56.195Z,11.34
2018-11-06T10:26:25.597Z,11.32
2018-11-06T10:28:54.168Z,11.39
2018-11-06T10:31:23.968Z,11.39
2018-11-06T10:33:52.887Z,11.72
2018-11-06T10:36:21.522Z,11.83
2018-11-06T10:38:50.478Z,11.62
2018-11-06T10:41:19.784Z,11.58
2018-11-06T10:43:48.900Z,11.82
2018-11-06T10:46:17.624Z,12.01
2018-11-06T10:48:46.343Z,12.16
2018-11-06T10:51:15.238Z,12.15
2018-11-06T10:53:45.783Z,12.13
2018-11-06T10:56:14.929Z,12.56
2018-11-06T10:58:44.324Z,12.84
2018-11-06T11:01:18.996Z,12.87
2018-11-06T11:03:53.087Z,12.89
2018-11-06T11:06:21.798Z,13.21
2018-11-06T11:08:50.894Z,13.07
2018-11-06T11:11:20.003Z,13.31
2018-11-06T11:13:49.472Z,13.68
2018-11-06T11:16:18.228Z,13.85
2018-11-06T11:18:47.679Z,13.79
2018-11-06T11:21:16.616Z,13.72
2018-11-06T11:23:46.213Z,13.89
2018-11-06T11:26:15.481Z,13.69
2018-11-06T11:28:46.669Z,14.02
2018-11-06T11:31:16.905Z,14.19
2018-11-06T11:33:46.350Z,14.35
2018-11-06T11:36:15.704Z,14.16
2018-11-06T11:38:44.850Z,14.22
2018-11-06T11:41:14.047Z,14.43
2018-11-06T11:43:43.378Z,14.60
2018-11-06T11:46:12.575Z,14.89
2018-11-06T11:48:41.805Z,15.27
2018-11-06T11:51:10.974Z,15.08
2018-11-06T11:53:40.404Z,15.24
2018-11-06T11:56:10.183Z,15.20
2018-11-06T11:58:39.458Z,15.21
2018-11-06T12:01:09.717Z,15.46
2018-11-06T12:03:39.068Z,15.26
2018-11-06T12:06:08.264Z,15.31
2018-11-06T12:08:37.445Z,15.60
2018-11-06T12:11:06.873Z,15.53
2018-11-06T12:13:35.808Z,15.67
2018-11-06T12:16:05.780Z,15.69
2018-11-06T12:18:34.595Z,15.96
2018-11-06T12:21:03.599Z,15.98
2018-11-06T12:23:33.753Z,16.02
2018-11-06T12:26:02.616Z,16.02
2018-11-06T12:28:31.860Z,15.92
2018-11-06T12:31:01.129Z,16.10
2018-11-06T12:33:30.646Z,16.18
2018-11-06T12:35:59.539Z,16.08
2018-11-06T12:38:28.266Z,16.41
2018-11-06T12:40:57.041Z,16.51
2018-11-06T12:43:25.843Z,16.38
2018-11-06T12:45:54.604Z,16.47
2018-11-06T12:48:23.535Z,16.58
2018-11-06T12:50:53.153Z,16.53
2018-11-06T12:53:22.175Z,16.37
2018-11-06T12:55:51.478Z,16.42
2018-11-06T12:58:20.685Z,16.28
2018-11-06T13:00:50.097Z,16.22
2018-11-06T13:03:19.184Z,16.20
2018-11-06T13:05:49.150Z,16.18
2018-11-06T13:08:18.307Z,16.09
2018-11-06T13:10:47.365Z,16.01
2018-11-06T13:13:17.116Z,16.03
2018-11-06T13:15:46.023Z,15.88
2018-11-06T13:18:15.278Z,15.53
2018-11-06T13:20:44.479Z,15.50
2018-11-06T13:23:13.539Z,15.63
2018-11-06T13:25:42.355Z,15.70
2018-11-06T13:28:12.230Z,15.74
2018-11-06T13:30:42.760Z,15.77
2018-11-06T13:33:12.513Z,15.81
2018-11-06T13:35:41.311Z,15.83
2018-11-06T13:38:10.261Z,15.80
2018-11-06T13:40:39.194Z,15.69
2018-11-06T13:43:10.170Z,15.60
2018-11-06T13:45:38.991Z,15.50
2018-11-06T13:48:08.090Z,15.39
2018-11-06T13:50:36.903Z,15.29
2018-11-06T13:53:06.316Z,15.29
2018-11-06T13:55:35.527Z,15.15
2018-11-06T13:58:05.110Z,14.94
2018-11-06T14:00:34.080Z,14.92
2018-11-06T14:03:03.080Z,14.98
2018-11-06T14:05:32.591Z,14.89
2018-11-06T14:08:01.629Z,14.78
2018-11-06T14:10:31.014Z,14.78
2018-11-06T14:13:01.150Z,14.88
2018-11-06T14:15:30.341Z,14.92
2018-11-06T14:18:00.571Z,14.83
2018-11-06T14:20:29.380Z,14.59
2018-11-06T14:22:59.119Z,14.56
2018-11-06T14:25:28.170Z,14.64
2018-11-06T14:27:56.991Z,14.29
2018-11-06T14:30:25.859Z,14.28
2018-11-06T14:32:54.865Z,14.16
2018-11-06T14:35:23.674Z,13.96
2018-11-06T14:37:52.432Z,14.04
2018-11-06T14:40:21.533Z,14.02
2018-11-06T14:42:50.813Z,13.93
2018-11-06T14:45:20.200Z,13.87
2018-11-06T14:47:49.287Z,13.77
2018-11-06T14:50:18.504Z,13.68
2018-11-06T14:52:47.356Z,13.59
2018-11-06T14:55:17.306Z,13.26
2018-11-06T14:57:46.265Z,13.25
2018-11-06T15:00:18.426Z,13.22
2018-11-06T15:02:48.780Z,13.09
2018-11-06T15:05:19.156Z,12.97
2018-11-06T15:07:48.074Z,12.93
2018-11-06T15:10:17.377Z,12.92
2018-11-06T15:12:46.853Z,12.83
2018-11-06T15:15:16.675Z,12.67
2018-11-06T15:17:46.844Z,12.57
2018-11-06T15:20:17.106Z,12.47
2018-11-06T15:22:46.451Z,12.37
2018-11-06T15:25:15.995Z,12.26
2018-11-06T15:27:44.746Z,12.12
2018-11-06T15:30:16.062Z,11.99
2018-11-06T15:32:45.061Z,11.86
2018-11-06T15:35:15.191Z,11.72
2018-11-06T15:37:44.107Z,11.57
2018-11-06T15:40:15.599Z,11.48
2018-11-06T15:42:44.545Z,11.37
2018-11-06T15:45:16.225Z,11.27
2018-11-06T15:47:45.590Z,11.10
2018-11-06T15:50:15.679Z,11.03
2018-11-06T15:52:45.564Z,10.94
2018-11-06T15:55:14.515Z,10.78
2018-11-06T15:57:43.306Z,10.70
2018-11-06T16:00:16.262Z,10.62
2018-11-06T16:02:46.017Z,10.58
2018-11-06T16:05:15.491Z,10.34
2018-11-06T16:07:45.659Z,10.09
2018-11-06T16:10:17.367Z,10.07
2018-11-06T16:12:47.276Z,9.98
2018-11-06T16:15:16.591Z,9.98
2018-11-06T16:17:45.310Z,9.96
2018-11-06T16:20:15.832Z,9.77
2018-11-06T16:22:45.240Z,9.53
2018-11-06T16:25:15.341Z,9.40
2018-11-06T16:27:44.964Z,9.52
2018-11-06T16:30:15.624Z,9.49
2018-11-06T16:32:46.174Z,9.32
2018-11-06T16:35:17.953Z,9.22
2018-11-06T16:37:48.181Z,9.21
2018-11-06T16:40:19.414Z,9.21
2018-11-06T16:42:50.717Z,9.24
2018-11-06T16:45:21.806Z,9.21
2018-11-06T16:47:52.343Z,9.12
2018-11-06T16:50:21.502Z,9.08
2018-11-06T16:52:50.476Z,8.93
2018-11-06T16:55:20.720Z,8.89
2018-11-06T16:57:49.717Z,8.85
2018-11-06T17:00:21.590Z,8.85
2018-11-06T17:02:50.301Z,8.83
2018-11-06T17:05:20.706Z,8.86
2018-11-06T17:07:50.135Z,8.79
2018-11-06T17:10:19.444Z,8.73
2018-11-06T17:12:48.612Z,8.68
2018-11-06T17:15:20.353Z,8.58
2018-11-06T17:17:51.772Z,8.63
2018-11-06T17:20:21.749Z,8.56
2018-11-06T17:22:50.981Z,8.44
2018-11-06T17:25:21.437Z,8.39
2018-11-06T17:27:50.485Z,8.50
2018-11-06T17:30:20.072Z,8.35
2018-11-06T17:32:48.923Z,8.33
2018-11-06T17:35:19.165Z,8.35
2018-11-06T17:37:48.144Z,8.42
2018-11-06T17:40:18.796Z,8.37
2018-11-06T17:42:47.717Z,8.34
2018-11-06T17:45:18.490Z,8.15
2018-11-06T17:47:47.327Z,8.18
2018-11-06T17:50:16.760Z,8.23
2018-11-06T17:52:46.489Z,8.21
2018-11-06T17:55:16.905Z,8.27
2018-11-06T17:57:45.746Z,8.18
2018-11-06T18:00:18.307Z,8.12
2018-11-06T18:02:48.215Z,8.13
2018-11-06T18:05:18.463Z,8.09
2018-11-06T18:07:47.537Z,8.09
2018-11-06T18:10:17.939Z,8.02
2018-11-06T18:12:47.871Z,7.92
2018-11-06T18:15:17.222Z,7.95
2018-11-06T18:17:46.768Z,7.96
2018-11-06T18:20:15.979Z,7.96
2018-11-06T18:22:46.674Z,7.89
2018-11-06T18:25:17.161Z,7.83
2018-11-06T18:27:46.272Z,7.78
2018-11-06T18:30:17.400Z,7.77
2018-11-06T18:32:46.513Z,7.79
2018-11-06T18:35:16.884Z,7.68
2018-11-06T18:37:45.869Z,7.77
2018-11-06T18:40:16.946Z,7.70
2018-11-06T18:42:47.427Z,7.64
2018-11-06T18:45:16.824Z,7.61
2018-11-06T18:47:45.847Z,7.64
2018-11-06T18:50:16.313Z,7.58
2018-11-06T18:52:46.508Z,7.55
2018-11-06T18:55:15.533Z,7.50
2018-11-06T18:57:44.766Z,7.56
2018-11-06T19:00:17.367Z,7.48
2018-11-06T19:02:48.081Z,7.46
2018-11-06T19:05:17.730Z,7.40
2018-11-06T19:07:46.767Z,7.30
2018-11-06T19:10:16.635Z,7.32
2018-11-06T19:12:46.170Z,7.22
2018-11-06T19:15:20.651Z,7.18
2018-11-06T19:17:50.227Z,7.17
2018-11-06T19:20:19.486Z,7.18
2018-11-06T19:22:48.842Z,7.20
2018-11-06T19:25:18.147Z,7.16
2018-11-06T19:27:47.717Z,7.09
2018-11-06T19:30:18.609Z,7.06
2018-11-06T19:32:47.698Z,7.04
2018-11-06T19:35:16.896Z,7.00
2018-11-06T19:37:45.943Z,6.95
2018-11-06T19:40:16.159Z,6.96
2018-11-06T19:42:45.972Z,6.89
2018-11-06T19:45:15.135Z,6.79
2018-11-06T19:47:45.078Z,6.77
2018-11-06T19:50:15.630Z,6.79
2018-11-06T19:52:45.374Z,6.77
2018-11-06T19:55:15.371Z,6.81
2018-11-06T19:57:45.658Z,6.80
2018-11-06T20:00:19.668Z,6.80
2018-11-06T20:02:50.096Z,6.75
2018-11-06T20:05:19.742Z,6.75
2018-11-06T20:07:51.355Z,6.65
2018-11-06T20:10:21.875Z,6.70
2018-11-06T20:12:53.671Z,6.64
2018-11-06T20:15:22.989Z,6.63
2018-11-06T20:17:53.102Z,6.57
2018-11-06T20:20:24.333Z,6.56
2018-11-06T20:22:54.216Z,6.55
2018-11-06T20:25:23.642Z,6.57
2018-11-06T20:27:53.052Z,6.46
2018-11-06T20:30:24.192Z,6.30
2018-11-06T20:32:53.823Z,6.31
2018-11-06T20:35:23.327Z,6.21
2018-11-06T20:37:52.839Z,6.14
2018-11-06T20:40:23.983Z,6.14
2018-11-06T20:42:53.353Z,6.16
2018-11-06T20:45:23.604Z,6.20
2018-11-06T20:47:52.892Z,6.22
2018-11-06T20:50:24.167Z,6.25
2018-11-06T20:52:53.852Z,6.22
2018-11-06T20:55:23.281Z,6.18
2018-11-06T20:57:52.342Z,6.13
2018-11-06T21:00:23.394Z,6.21
2018-11-06T21:02:54.625Z,6.26
2018-11-06T21:05:23.865Z,6.27
2018-11-06T21:07:53.125Z,6.28
2018-11-06T21:10:23.613Z,6.22
2018-11-06T21:12:52.531Z,6.22
2018-11-06T21:15:21.768Z,6.24
2018-11-06T21:17:50.970Z,6.19
2018-11-06T21:20:21.350Z,6.16
2018-11-06T21:22:50.338Z,6.16
2018-11-06T21:25:20.035Z,6.14
2018-11-06T21:27:48.773Z,6.09
2018-11-06T21:30:19.732Z,6.02
2018-11-06T21:32:50.358Z,6.05
2018-11-06T21:35:19.412Z,5.98
2018-11-06T21:37:48.573Z,6.02
2018-11-06T21:40:18.698Z,6.00
2018-11-06T21:42:48.275Z,5.98
2018-11-06T21:45:17.858Z,5.90
2018-11-06T21:47:48.704Z,5.93
2018-11-06T21:50:18.120Z,5.99
2018-11-06T21:52:47.137Z,5.98
2018-11-06T21:55:17.352Z,5.94
2018-11-06T21:57:46.243Z,5.86
2018-11-06T22:00:17.952Z,5.85
2018-11-06T22:02:47.668Z,5.80
2018-11-06T22:05:17.869Z,5.77
2018-11-06T22:07:47.295Z,5.75
2018-11-06T22:10:17.363Z,5.73
2018-11-06T22:12:46.826Z,5.81
2018-11-06T22:15:17.189Z,5.75
2018-11-06T22:17:46.356Z,5.82
2018-11-06T22:20:16.586Z,5.75
2018-11-06T22:22:46.670Z,5.79
2018-11-06T22:25:15.518Z,5.70
2018-11-06T22:27:44.654Z,5.66
2018-11-06T22:30:15.218Z,5.64
2018-11-06T22:32:44.964Z,5.67
2018-11-06T22:35:15.573Z,5.65
2018-11-06T22:37:44.725Z,5.59
2018-11-06T22:40:15.583Z,5.51
2018-11-06T22:42:44.911Z,5.51
2018-11-06T22:45:15.193Z,5.46
2018-11-06T22:47:45.007Z,5.45
2018-11-06T22:50:16.480Z,5.50
2018-11-06T22:52:45.952Z,5.54
2018-11-06T22:55:14.989Z,5.50
2018-11-06T22:57:44.108Z,5.51
2018-11-06T23:00:17.354Z,5.39
2018-11-06T23:02:46.474Z,5.35
2018-11-06T23:05:15.849Z,5.33
2018-11-06T23:07:50.639Z,5.39
2018-11-06T23:10:19.924Z,5.35
2018-11-06T23:12:49.576Z,5.36
2018-11-06T23:15:18.428Z,5.25
2018-11-06T23:17:47.250Z,5.29
2018-11-06T23:20:16.187Z,5.28
2018-11-06T23:22:45.043Z,5.28
2018-11-06T23:25:14.256Z,5.26
2018-11-06T23:27:43.564Z,5.24
2018-11-06T23:30:14.353Z,5.24
2018-11-06T23:32:43.246Z,5.22
2018-11-06T23:35:12.297Z,5.17
2018-11-06T23:37:42.322Z,5.07
2018-11-06T23:40:12.259Z,5.03
2018-11-06T23:42:41.370Z,5.08
2018-11-06T23:45:11.157Z,5.10
2018-11-06T23:47:40.231Z,5.03
2018-11-06T23:50:10.392Z,5.09
2018-11-06T23:52:40.687Z,5.08
2018-11-06T23:55:09.886Z,4.99
2018-11-06T23:57:38.965Z,4.95
